Time;durP1;ratioP1;P1;durP2;ratioP2;P2;SDS_P1;SDS_P2;PMS_P1;PMS_P2;Temp;Humidity;BMP_temperature;BMP_pressure;BME280_temperature;BME280_humidity;BME280_pressure;Samples;Min_cycle;Max_cycle;Signal;HPM_P1;HPM_P2
2024/01/04 00:01:39;;;;;;;0.80;0.80;;;7.60;99.90;;;;;;5056106;28;20044;-73
2024/01/04 00:04:04;;;;;;;0.80;0.80;;;7.60;99.90;;;;;;5056559;28;20071;-73
2024/01/04 00:06:30;;;;;;;0.80;0.80;;;7.60;99.90;;;;;;5056320;28;20151;-74
2024/01/04 00:08:55;;;;;;;0.80;0.80;;;8.00;99.90;;;;;;5056676;28;20094;-74
2024/01/04 00:11:21;;;;;;;0.80;0.80;;;7.50;99.90;;;;;;5056684;28;20048;-75
2024/01/04 00:13:47;;;;;;;0.80;0.80;;;8.50;99.90;;;;;;5055060;28;20145;-75
2024/01/04 00:16:12;;;;;;;0.80;0.80;;;7.60;99.90;;;;;;5056228;28;20480;-73
2024/01/04 00:18:38;;;;;;;0.70;0.70;;;7.40;99.90;;;;;;5056213;28;20041;-73
2024/01/04 00:21:04;;;;;;;0.80;0.80;;;7.40;99.90;;;;;;5056004;28;20115;-75
2024/01/04 00:23:31;;;;;;;0.70;0.70;;;7.40;99.90;;;;;;5056050;28;20476;-73
2024/01/04 00:25:57;;;;;;;0.80;0.80;;;8.10;99.90;;;;;;5055987;28;20436;-73
2024/01/04 00:28:23;;;;;;;0.80;0.80;;;7.40;99.90;;;;;;5056000;28;20048;-74
2024/01/04 00:30:48;;;;;;;0.80;0.80;;;7.90;99.90;;;;;;5056032;28;20507;-74
2024/01/04 00:33:14;;;;;;;0.80;0.80;;;8.00;99.90;;;;;;5055802;28;20515;-74
2024/01/04 00:35:39;;;;;;;0.80;0.80;;;7.40;99.90;;;;;;5055813;28;20048;-75
2024/01/04 00:38:05;;;;;;;0.80;0.80;;;7.30;99.90;;;;;;5055796;28;20047;-74
2024/01/04 00:40:32;;;;;;;0.80;0.80;;;7.30;99.90;;;;;;5055722;28;20496;-75
2024/01/04 00:42:57;;;;;;;0.80;0.80;;;8.10;99.90;;;;;;5055416;28;20061;-73
2024/01/04 00:45:23;;;;;;;0.80;0.80;;;7.20;99.90;;;;;;5055636;28;20542;-74
2024/01/04 00:47:49;;;;;;;0.80;0.80;;;7.20;99.90;;;;;;5055720;28;20040;-75
2024/01/04 00:50:15;;;;;;;0.80;0.80;;;7.20;99.90;;;;;;5055483;28;20052;-74
2024/01/04 00:52:40;;;;;;;0.80;0.80;;;7.80;99.90;;;;;;5055465;28;20037;-73
2024/01/04 00:55:08;;;;;;;0.70;0.70;;;7.20;99.90;;;;;;5055462;28;20040;-74
2024/01/04 00:57:33;;;;;;;0.73;0.73;;;7.20;99.90;;;;;;5037851;28;20049;-74
2024/01/04 00:59:59;;;;;;;0.80;0.80;;;7.70;99.90;;;;;;5055550;28;20048;-74
2024/01/04 01:02:27;;;;;;;0.80;0.80;;;8.10;99.90;;;;;;5055193;28;20041;-74
2024/01/04 01:04:53;;;;;;;0.80;0.80;;;7.10;99.90;;;;;;5055221;28;20049;-74
2024/01/04 01:07:18;;;;;;;0.88;0.88;;;7.10;99.90;;;;;;5054957;28;20053;-76
2024/01/04 01:09:44;;;;;;;0.80;0.80;;;7.00;99.90;;;;;;5055528;28;20037;-73
2024/01/04 01:12:10;;;;;;;0.82;0.82;;;7.10;99.90;;;;;;5054888;28;20500;-73
2024/01/04 01:14:35;;;;;;;0.90;0.90;;;7.00;99.90;;;;;;5055224;28;20047;-74
2024/01/04 01:17:01;;;;;;;0.88;0.88;;;7.70;99.90;;;;;;5055035;28;20495;-74
2024/01/04 01:19:27;;;;;;;0.90;0.90;;;7.60;99.90;;;;;;5055393;28;20127;-74
2024/01/04 01:21:53;;;;;;;0.80;0.80;;;7.00;99.90;;;;;;5054849;28;20555;-74
2024/01/04 01:24:18;;;;;;;0.80;0.80;;;7.00;99.90;;;;;;5054896;28;20041;-74
2024/01/04 01:26:44;;;;;;;0.80;0.80;;;6.90;99.90;;;;;;5055196;28;20045;-75
2024/01/04 01:29:10;;;;;;;0.90;0.90;;;6.90;99.90;;;;;;5054811;28;20044;-74
2024/01/04 01:31:42;;;;;;;0.80;0.80;;;7.00;99.90;;;;;;5054936;28;20507;-73
2024/01/04 01:34:08;;;;;;;0.80;0.80;;;6.90;99.90;;;;;;5054746;28;20045;-75
2024/01/04 01:36:34;;;;;;;0.80;0.80;;;7.30;99.90;;;;;;5053942;28;20495;-72
2024/01/04 01:39:00;;;;;;;0.85;0.85;;;6.90;99.90;;;;;;5054551;28;20136;-72
2024/01/04 01:41:25;;;;;;;0.80;0.80;;;6.90;99.90;;;;;;5054458;28;20514;-73
2024/01/04 01:43:51;;;;;;;0.80;0.80;;;6.90;99.90;;;;;;5054707;28;20061;-72
2024/01/04 01:46:17;;;;;;;0.82;0.82;;;6.90;99.90;;;;;;5054315;28;20539;-73
2024/01/04 01:48:43;;;;;;;0.87;0.87;;;6.80;99.90;;;;;;5054177;28;20076;-74
2024/01/04 01:51:10;;;;;;;0.90;0.90;;;7.40;99.90;;;;;;5054300;28;20080;-74
2024/01/04 01:53:39;;;;;;;0.82;0.82;;;6.70;99.90;;;;;;5054446;28;20404;-72
2024/01/04 01:56:05;;;;;;;0.80;0.80;;;7.20;99.90;;;;;;5054300;28;20041;-74
2024/01/04 01:58:30;;;;;;;0.80;0.80;;;6.70;99.90;;;;;;5054313;28;20045;-73
2024/01/04 02:00:56;;;;;;;0.80;0.80;;;6.70;99.90;;;;;;5054204;28;20080;-75
2024/01/04 02:03:22;;;;;;;0.80;0.80;;;6.60;99.90;;;;;;5054153;28;20037;-74
2024/01/04 02:05:48;;;;;;;0.80;0.80;;;6.60;99.90;;;;;;5054076;28;20559;-74
2024/01/04 02:08:13;;;;;;;0.80;0.80;;;7.30;99.90;;;;;;5054397;28;20051;-74
2024/01/04 02:10:39;;;;;;;0.80;0.80;;;6.60;99.90;;;;;;5054115;28;20045;-73
2024/01/04 02:13:05;;;;;;;0.80;0.80;;;7.60;99.90;;;;;;5053531;28;20399;-73
2024/01/04 02:15:31;;;;;;;0.80;0.80;;;7.10;99.90;;;;;;5053915;28;20055;-72
2024/01/04 02:17:57;;;;;;;0.80;0.80;;;6.50;99.90;;;;;;5054092;28;20037;-75
2024/01/04 02:20:22;;;;;;;0.80;0.80;;;6.50;99.90;;;;;;5053635;28;20397;-74
2024/01/04 02:22:51;;;;;;;0.80;0.80;;;7.20;99.90;;;;;;5053819;28;20049;-74
2024/01/04 02:25:17;;;;;;;0.80;0.80;;;6.50;99.90;;;;;;5053834;28;20100;-73
2024/01/04 02:27:42;;;;;;;0.80;0.80;;;6.50;99.90;;;;;;5053724;28;20155;-73
2024/01/04 02:30:08;;;;;;;0.90;0.90;;;6.40;99.90;;;;;;5053670;28;20091;-73
2024/01/04 02:32:34;;;;;;;0.90;0.90;;;6.40;99.90;;;;;;5053519;28;20115;-74
2024/01/04 02:35:00;;;;;;;0.90;0.90;;;6.40;99.90;;;;;;5053354;28;20033;-73
2024/01/04 02:37:25;;;;;;;0.80;0.80;;;6.40;99.90;;;;;;5054156;28;20067;-73
2024/01/04 02:39:51;;;;;;;0.80;0.80;;;6.40;99.90;;;;;;5053477;28;20052;-74
2024/01/04 02:42:16;;;;;;;0.80;0.80;;;6.40;99.90;;;;;;5053563;28;20056;-75
2024/01/04 02:44:43;;;;;;;0.90;0.90;;;6.40;99.90;;;;;;5053597;28;20136;-74
2024/01/04 02:47:08;;;;;;;0.90;0.90;;;6.40;99.90;;;;;;5053588;28;20048;-75
2024/01/04 02:49:34;;;;;;;0.90;0.90;;;6.40;99.90;;;;;;5053539;28;20041;-72
2024/01/04 02:51:59;;;;;;;0.90;0.90;;;6.40;99.90;;;;;;5053576;28;20045;-74
2024/01/04 02:54:25;;;;;;;0.90;0.90;;;6.30;99.90;;;;;;5053556;28;20044;-73
2024/01/04 02:56:51;;;;;;;0.80;0.80;;;6.30;99.90;;;;;;5052356;28;20056;-75
2024/01/04 02:59:16;;;;;;;0.90;0.90;;;6.20;99.90;;;;;;5053508;28;20104;-74
2024/01/04 03:01:43;;;;;;;0.90;0.90;;;6.20;99.90;;;;;;5053191;28;20503;-73
2024/01/04 03:04:09;;;;;;;0.80;0.80;;;6.10;99.90;;;;;;5053347;28;20400;-73
2024/01/04 03:06:35;;;;;;;0.80;0.80;;;6.10;99.90;;;;;;5053359;28;20040;-74
2024/01/04 03:09:00;;;;;;;0.80;0.80;;;6.80;99.90;;;;;;5054026;28;20051;-74
2024/01/04 03:11:26;;;;;;;0.80;0.80;;;6.10;99.90;;;;;;5053336;28;20120;-74
2024/01/04 03:13:52;;;;;;;0.90;0.90;;;6.90;99.90;;;;;;5053360;28;20393;-73
2024/01/04 03:16:20;;;;;;;0.90;0.90;;;6.20;99.90;;;;;;5053303;28;20052;-74
2024/01/04 03:18:45;;;;;;;0.88;0.88;;;6.20;99.90;;;;;;5035351;28;20053;-75
2024/01/04 03:21:11;;;;;;;0.80;0.80;;;7.20;99.90;;;;;;5053178;28;20044;-74
2024/01/04 03:23:37;;;;;;;0.80;0.80;;;6.20;99.90;;;;;;5053083;28;20045;-74
2024/01/04 03:26:02;;;;;;;0.90;0.90;;;6.20;99.90;;;;;;5056983;28;20060;-74
2024/01/04 03:28:28;;;;;;;0.90;0.90;;;6.20;99.90;;;;;;5057083;28;20124;-73
2024/01/04 03:30:54;;;;;;;0.90;0.90;;;6.10;99.90;;;;;;5056994;28;20139;-74
2024/01/04 03:33:19;;;;;;;0.90;0.90;;;6.10;99.90;;;;;;5056946;28;20045;-74
2024/01/04 03:35:45;;;;;;;0.90;0.90;;;6.10;99.90;;;;;;5056963;28;20106;-74
2024/01/04 03:38:10;;;;;;;0.90;0.90;;;7.10;99.90;;;;;;5056912;28;20044;-74
2024/01/04 03:40:36;;;;;;;0.80;0.80;;;6.10;99.90;;;;;;5056908;28;20080;-74
2024/01/04 03:43:03;;;;;;;1.30;1.20;;;6.60;99.90;;;;;;5056684;28;20115;-73
2024/01/04 03:45:30;;;;;;;0.90;0.90;;;6.00;99.90;;;;;;5056901;28;20404;-75
2024/01/04 03:47:56;;;;;;;0.80;0.80;;;6.00;99.90;;;;;;5056691;28;20063;-75
2024/01/04 03:50:22;;;;;;;0.90;0.90;;;6.00;99.90;;;;;;5056711;28;20037;-73
2024/01/04 03:52:47;;;;;;;0.90;0.90;;;6.00;99.90;;;;;;5056679;28;20496;-74
2024/01/04 03:55:15;;;;;;;0.90;0.90;;;6.00;99.90;;;;;;5056578;28;20496;-74
2024/01/04 03:57:42;;;;;;;0.90;0.90;;;5.90;99.90;;;;;;5056522;28;20128;-74
2024/01/04 04:00:08;;;;;;;0.80;0.80;;;6.00;99.90;;;;;;5056502;28;20052;-73
2024/01/04 04:02:34;;;;;;;0.90;0.90;;;6.00;99.90;;;;;;5056348;28;20468;-73
2024/01/04 04:05:00;;;;;;;0.90;0.90;;;5.90;99.90;;;;;;5056093;28;20095;-74
2024/01/04 04:07:25;;;;;;;0.80;0.80;;;5.90;99.90;;;;;;5056360;28;20045;-74
2024/01/04 04:09:51;;;;;;;0.90;0.90;;;5.90;99.90;;;;;;5056633;28;20124;-74
2024/01/04 04:12:17;;;;;;;0.90;0.90;;;6.80;99.90;;;;;;5056589;28;20088;-73
2024/01/04 04:14:42;;;;;;;1.08;0.98;;;5.90;99.90;;;;;;5056407;28;20072;-74
2024/01/04 04:17:08;;;;;;;1.00;1.00;;;5.90;99.90;;;;;;5056165;28;20099;-75
2024/01/04 04:19:33;;;;;;;0.90;0.90;;;5.90;99.90;;;;;;5056161;28;20052;-73
2024/01/04 04:21:59;;;;;;;0.80;0.80;;;5.90;99.90;;;;;;5056092;28;20082;-73
2024/01/04 04:24:25;;;;;;;0.90;0.90;;;5.90;99.90;;;;;;5056041;28;20033;-73
2024/01/04 04:26:50;;;;;;;0.80;0.80;;;5.90;99.90;;;;;;5055987;28;20045;-73
2024/01/04 04:29:16;;;;;;;0.90;0.90;;;6.20;99.90;;;;;;5055954;28;20044;-73
2024/01/04 04:31:41;;;;;;;0.80;0.80;;;6.30;99.90;;;;;;5055907;28;20385;-73
2024/01/04 04:34:07;;;;;;;0.90;0.90;;;6.00;99.90;;;;;;5055806;28;20073;-75
2024/01/04 04:36:33;;;;;;;0.90;0.90;;;6.00;99.90;;;;;;5055552;28;20654;-75
2024/01/04 04:39:02;;;;;;;0.85;0.85;;;6.10;99.90;;;;;;5055807;28;20423;-73
2024/01/04 04:41:28;;;;;;;0.80;0.80;;;5.90;99.90;;;;;;5055627;28;20053;-75
2024/01/04 04:43:53;;;;;;;0.80;0.80;;;5.90;99.90;;;;;;5055690;28;20060;-73
2024/01/04 04:46:20;;;;;;;0.90;0.90;;;5.90;99.90;;;;;;5055783;28;20047;-74
2024/01/04 04:48:46;;;;;;;0.90;0.90;;;5.90;99.90;;;;;;5055598;28;20407;-73
2024/01/04 04:51:11;;;;;;;0.88;0.88;;;5.90;99.90;;;;;;5055561;28;20048;-73
2024/01/04 04:53:37;;;;;;;0.90;0.90;;;5.80;99.90;;;;;;5055475;28;20041;-73
2024/01/04 04:56:04;;;;;;;0.88;0.88;;;5.80;99.90;;;;;;5055725;28;20465;-74
2024/01/04 04:58:29;;;;;;;0.80;0.80;;;5.70;99.90;;;;;;5055407;28;20374;-75
2024/01/04 05:00:56;;;;;;;0.90;0.90;;;5.80;99.90;;;;;;5055481;28;20047;-73
2024/01/04 05:03:22;;;;;;;0.80;0.80;;;5.80;99.90;;;;;;5055223;28;20083;-73
2024/01/04 05:05:47;;;;;;;0.80;0.80;;;5.80;99.90;;;;;;5055238;28;20040;-75
2024/01/04 05:08:13;;;;;;;0.90;0.90;;;5.80;99.90;;;;;;5055271;28;20044;-75
2024/01/04 05:10:39;;;;;;;0.82;0.82;;;5.80;99.90;;;;;;5055258;28;20080;-74
2024/01/04 05:13:04;;;;;;;0.90;0.90;;;5.80;99.90;;;;;;5055137;28;20037;-74
2024/01/04 05:15:30;;;;;;;0.82;0.82;;;5.70;99.90;;;;;;5055056;28;20378;-74
2024/01/04 05:17:56;;;;;;;0.90;0.90;;;5.70;99.90;;;;;;5054931;28;20052;-73
2024/01/04 05:20:21;;;;;;;0.80;0.80;;;5.70;99.90;;;;;;5055256;28;20175;-74
2024/01/04 05:22:47;;;;;;;0.90;0.90;;;5.70;99.90;;;;;;5054935;28;20044;-74
2024/01/04 05:25:13;;;;;;;0.90;0.90;;;5.70;99.90;;;;;;5054941;28;20045;-74
2024/01/04 05:27:38;;;;;;;0.80;0.80;;;5.70;99.90;;;;;;5054974;28;20041;-73
2024/01/04 05:30:08;;;;;;;0.90;0.90;;;5.70;99.90;;;;;;5054766;28;20051;-73
2024/01/04 05:32:34;;;;;;;0.80;0.80;;;5.70;99.90;;;;;;5054666;28;20044;-75
2024/01/04 05:35:00;;;;;;;0.90;0.90;;;5.60;99.90;;;;;;5055155;28;20040;-74
2024/01/04 05:37:25;;;;;;;0.90;0.90;;;5.70;99.90;;;;;;5054725;28;20063;-74
2024/01/04 05:39:51;;;;;;;0.80;0.80;;;5.60;99.90;;;;;;5054674;28;20088;-73
2024/01/04 05:42:16;;;;;;;0.85;0.85;;;5.60;99.90;;;;;;5054670;28;20057;-74
2024/01/04 05:44:42;;;;;;;0.90;0.90;;;5.60;99.90;;;;;;5036911;28;20049;-74
2024/01/04 05:47:08;;;;;;;0.80;0.80;;;5.60;99.90;;;;;;5053462;28;20072;-74
2024/01/04 05:49:33;;;;;;;0.80;0.80;;;6.20;99.90;;;;;;5054386;28;20053;-74
2024/01/04 05:51:59;;;;;;;0.90;0.90;;;5.60;99.90;;;;;;5054427;28;20094;-76
2024/01/04 05:54:25;;;;;;;0.90;0.90;;;5.60;99.90;;;;;;5054354;28;20473;-72
2024/01/04 05:56:50;;;;;;;0.90;0.90;;;5.50;99.90;;;;;;5054316;28;20052;-73
2024/01/04 05:59:16;;;;;;;0.80;0.80;;;5.60;99.90;;;;;;5054516;28;20036;-74
2024/01/04 06:01:41;;;;;;;0.90;0.90;;;5.50;99.90;;;;;;5036593;28;20045;-73
2024/01/04 06:04:07;;;;;;;0.90;0.90;;;5.50;99.90;;;;;;5054137;28;20080;-72
2024/01/04 06:06:32;;;;;;;0.80;0.80;;;5.50;99.90;;;;;;5054144;28;20122;-74
2024/01/04 06:08:58;;;;;;;0.90;0.90;;;6.50;99.90;;;;;;5054062;28;20037;-72
2024/01/04 06:11:24;;;;;;;0.90;0.90;;;5.50;99.90;;;;;;5053769;28;20041;-74
2024/01/04 06:13:50;;;;;;;0.90;0.90;;;5.50;99.90;;;;;;5054270;28;20060;-73
2024/01/04 06:16:17;;;;;;;0.80;0.80;;;5.50;99.90;;;;;;5053680;28;20053;-75
2024/01/04 06:18:43;;;;;;;0.85;0.85;;;5.50;99.90;;;;;;5053855;28;20052;-75
2024/01/04 06:21:08;;;;;;;0.80;0.80;;;5.50;99.90;;;;;;5053873;28;20049;-75
2024/01/04 06:23:34;;;;;;;0.80;0.80;;;5.50;99.90;;;;;;5053851;28;20048;-73
2024/01/04 06:26:00;;;;;;;0.90;0.90;;;5.40;99.90;;;;;;5053859;28;20131;-75
2024/01/04 06:28:25;;;;;;;1.15;1.10;;;5.50;99.90;;;;;;5053821;28;20460;-73
2024/01/04 06:30:51;;;;;;;0.80;0.80;;;5.50;99.90;;;;;;5053743;28;20115;-73
2024/01/04 06:33:17;;;;;;;0.80;0.80;;;5.50;99.90;;;;;;5054198;28;20037;-72
2024/01/04 06:35:43;;;;;;;0.80;0.80;;;5.50;99.90;;;;;;5053722;28;20424;-73
2024/01/04 06:38:09;;;;;;;0.90;0.90;;;5.40;99.90;;;;;;5053678;28;20045;-73
2024/01/04 06:40:35;;;;;;;0.90;0.90;;;6.30;99.90;;;;;;5053661;28;20044;-72
2024/01/04 06:43:03;;;;;;;0.85;0.85;;;5.40;99.90;;;;;;5053672;28;20057;-74
2024/01/04 06:45:29;;;;;;;0.90;0.90;;;6.20;99.90;;;;;;5053662;28;20049;-74
2024/01/04 06:47:55;;;;;;;1.17;1.07;;;5.40;99.90;;;;;;5053486;28;20045;-73
2024/01/04 06:50:22;;;;;;;0.90;0.90;;;5.40;99.90;;;;;;5053587;28;20048;-74
2024/01/04 06:52:47;;;;;;;1.77;1.45;;;5.40;99.90;;;;;;5053530;28;20052;-74
2024/01/04 06:55:14;;;;;;;0.90;0.90;;;5.40;99.90;;;;;;5053467;28;20049;-73
2024/01/04 06:57:40;;;;;;;0.90;0.90;;;5.40;99.90;;;;;;5053526;28;20045;-74
2024/01/04 07:00:07;;;;;;;0.90;0.90;;;5.40;99.90;;;;;;5057647;28;20461;-75
2024/01/04 07:02:35;;;;;;;0.90;0.90;;;5.40;99.90;;;;;;5057422;28;20044;-73
2024/01/04 07:05:05;;;;;;;0.90;0.90;;;5.40;99.90;;;;;;5057467;28;20055;-74
2024/01/04 07:07:34;;;;;;;0.80;0.80;;;5.30;99.90;;;;;;5057498;28;20469;-76
2024/01/04 07:10:00;;;;;;;0.90;0.90;;;5.30;99.90;;;;;;5057383;28;20126;-74
2024/01/04 07:12:26;;;;;;;0.90;0.90;;;5.60;99.90;;;;;;5057414;28;20073;-75
2024/01/04 07:14:52;;;;;;;0.90;0.90;;;5.30;99.90;;;;;;5057497;28;20491;-74
2024/01/04 07:17:18;;;;;;;0.90;0.90;;;5.30;99.90;;;;;;5056976;28;20480;-75
2024/01/04 07:19:44;;;;;;;0.90;0.90;;;5.30;99.90;;;;;;5057300;28;20044;-75
2024/01/04 07:22:12;;;;;;;0.88;0.88;;;5.30;99.90;;;;;;5057175;28;20037;-74
2024/01/04 07:24:38;;;;;;;0.90;0.90;;;5.30;99.90;;;;;;5057173;28;20040;-74
2024/01/04 07:27:04;;;;;;;0.85;0.85;;;5.30;99.90;;;;;;5057149;28;20048;-75
2024/01/04 07:29:31;;;;;;;0.90;0.90;;;5.30;99.90;;;;;;5057126;28;20086;-76
2024/01/04 07:31:57;;;;;;;0.80;0.80;;;5.30;99.90;;;;;;5055798;28;20045;-76
2024/01/04 07:34:22;;;;;;;0.90;0.90;;;5.30;99.90;;;;;;5057282;28;20052;-76
2024/01/04 07:36:48;;;;;;;0.80;0.80;;;5.30;99.90;;;;;;5056929;28;20477;-76
2024/01/04 07:39:15;;;;;;;0.90;0.90;;;5.30;99.90;;;;;;5057051;28;20072;-76
2024/01/04 07:41:41;;;;;;;0.90;0.90;;;5.30;99.90;;;;;;5060287;28;20044;-73
2024/01/04 07:44:07;;;;;;;0.80;0.80;;;5.30;99.90;;;;;;5076391;28;20438;-74
2024/01/04 07:46:33;;;;;;;0.90;0.90;;;5.20;99.90;;;;;;5076175;28;20434;-73
2024/01/04 07:48:59;;;;;;;0.90;0.90;;;5.20;99.90;;;;;;5076565;28;20040;-73
2024/01/04 07:51:24;;;;;;;0.88;0.88;;;5.30;99.90;;;;;;5076485;28;20125;-75
2024/01/04 07:53:50;;;;;;;0.82;0.82;;;5.30;99.90;;;;;;5076311;28;20488;-74
2024/01/04 07:56:16;;;;;;;0.80;0.80;;;5.20;99.90;;;;;;5076198;28;20468;-73
2024/01/04 07:58:41;;;;;;;0.90;0.90;;;5.70;99.90;;;;;;5076179;28;20059;-74
2024/01/04 08:01:07;;;;;;;0.80;0.80;;;5.20;99.90;;;;;;5076427;28;20051;-73
2024/01/04 08:03:32;;;;;;;1.10;1.00;;;5.20;99.90;;;;;;5076325;28;20487;-75
2024/01/04 08:05:59;;;;;;;0.90;0.90;;;5.20;99.90;;;;;;5076274;28;20533;-73
2024/01/04 08:08:27;;;;;;;0.90;0.90;;;5.20;99.90;;;;;;5076280;28;20090;-74
2024/01/04 08:10:53;;;;;;;0.90;0.90;;;5.10;99.90;;;;;;5075097;28;20554;-73
2024/01/04 08:13:19;;;;;;;0.90;0.90;;;5.10;99.90;;;;;;5075938;28;20044;-74
2024/01/04 08:15:44;;;;;;;0.90;0.90;;;5.10;99.90;;;;;;5075650;28;20477;-72
2024/01/04 08:18:10;;;;;;;0.90;0.90;;;5.20;99.90;;;;;;5076021;28;20395;-75
2024/01/04 08:20:35;;;;;;;0.90;0.90;;;5.10;99.90;;;;;;5058211;28;20044;-69
2024/01/04 08:23:01;;;;;;;0.90;0.90;;;5.10;99.90;;;;;;5075909;28;20051;-71
2024/01/04 08:25:27;;;;;;;0.90;0.90;;;5.10;99.90;;;;;;5075793;28;20045;-72
2024/01/04 08:27:53;;;;;;;0.80;0.80;;;5.80;99.90;;;;;;5075780;28;20048;-74
2024/01/04 08:30:19;;;;;;;0.90;0.90;;;5.10;99.90;;;;;;5075357;28;20041;-70
2024/01/04 08:32:44;;;;;;;0.90;0.90;;;5.00;99.90;;;;;;5075383;28;20407;-77
2024/01/04 08:35:10;;;;;;;0.90;0.90;;;5.00;99.90;;;;;;5075723;28;20049;-75
2024/01/04 08:37:36;;;;;;;0.90;0.90;;;5.00;99.90;;;;;;5075796;28;20124;-79
2024/01/04 08:40:02;;;;;;;0.90;0.90;;;5.00;99.90;;;;;;5075670;28;20044;-74
2024/01/04 08:42:27;;;;;;;0.82;0.82;;;5.00;99.90;;;;;;5075259;28;20127;-79
2024/01/04 08:44:53;;;;;;;0.80;0.80;;;5.00;99.90;;;;;;5075187;28;20044;-76
2024/01/04 08:47:19;;;;;;;0.90;0.90;;;5.00;99.90;;;;;;5075478;28;20053;-75
2024/01/04 08:49:45;;;;;;;0.80;0.80;;;5.10;99.90;;;;;;5075348;28;20040;-73
2024/01/04 08:52:10;;;;;;;0.90;0.90;;;5.00;99.90;;;;;;5075496;28;20052;-77
2024/01/04 08:54:36;;;;;;;0.80;0.80;;;5.10;99.90;;;;;;5075292;28;20378;-74
2024/01/04 08:57:01;;;;;;;1.10;1.00;;;5.10;99.90;;;;;;5057504;28;20056;-74
2024/01/04 08:59:27;;;;;;;0.90;0.90;;;5.10;99.90;;;;;;5074968;28;20053;-75
2024/01/04 09:01:53;;;;;;;0.80;0.80;;;5.10;99.90;;;;;;5075029;28;20048;-75
2024/01/04 09:04:20;;;;;;;1.10;1.00;;;5.20;99.90;;;;;;5075220;28;20052;-73
2024/01/04 09:06:45;;;;;;;1.02;1.02;;;5.20;99.90;;;;;;5075109;28;20048;-75
2024/01/04 09:09:11;;;;;;;0.90;0.90;;;5.20;99.90;;;;;;5075083;28;20044;-74
2024/01/04 09:11:41;;;;;;;1.77;1.10;;;5.20;99.90;;;;;;5074662;28;20042;-75
2024/01/04 09:14:11;;;;;;;0.90;0.90;;;5.20;99.90;;;;;;5056981;28;20419;-74
2024/01/04 09:16:43;;;;;;;0.90;0.90;;;5.20;99.90;;;;;;5074991;28;20056;-74
2024/01/04 09:19:16;;;;;;;0.90;0.90;;;5.20;99.90;;;;;;5074777;28;20495;-74
2024/01/04 09:21:42;;;;;;;0.90;0.90;;;5.20;99.90;;;;;;5073752;28;20361;-74
2024/01/04 09:24:08;;;;;;;0.90;0.90;;;5.20;99.90;;;;;;5074048;28;20052;-75
2024/01/04 09:26:41;;;;;;;0.90;0.90;;;6.00;99.90;;;;;;5074702;28;20070;-73
2024/01/04 09:29:08;;;;;;;0.90;0.90;;;5.20;99.90;;;;;;5074615;28;20466;-73
2024/01/04 09:31:34;;;;;;;0.93;0.90;;;5.20;99.90;;;;;;5074587;28;20067;-76
2024/01/04 09:34:00;;;;;;;0.80;0.80;;;5.20;99.90;;;;;;5074468;28;20044;-75
2024/01/04 09:36:26;;;;;;;0.90;0.90;;;5.20;99.90;;;;;;5074774;28;20041;-73
2024/01/04 09:38:51;;;;;;;0.90;0.90;;;5.30;99.90;;;;;;5073995;28;20056;-76
2024/01/04 09:41:29;;;;;;;0.90;0.90;;;5.20;99.90;;;;;;5074294;28;20434;-72
2024/01/04 09:44:05;;;;;;;0.90;0.90;;;5.30;99.90;;;;;;5074606;28;20426;-73
2024/01/04 09:46:35;;;;;;;0.90;0.90;;;5.20;99.90;;;;;;5074372;28;20048;-77
2024/01/04 09:49:01;;;;;;;0.82;0.82;;;5.30;99.90;;;;;;5074210;28;20396;-73
2024/01/04 09:51:28;;;;;;;0.80;0.80;;;5.30;99.90;;;;;;5074265;28;20091;-74
2024/01/04 09:53:55;;;;;;;0.90;0.90;;;5.30;99.90;;;;;;5073679;28;20064;-75
2024/01/04 09:56:22;;;;;;;0.90;0.90;;;5.30;99.90;;;;;;5073832;28;20079;-78
2024/01/04 09:58:48;;;;;;;0.80;0.80;;;5.30;99.90;;;;;;5057257;28;20041;-70
2024/01/04 10:01:40;;;;;;;1.13;1.10;;;5.30;99.90;;;;;;5053981;28;20037;-72
2024/01/04 10:04:11;;;;;;;0.80;0.80;;;5.50;99.90;;;;;;5050852;28;20061;-75
2024/01/04 10:06:38;;;;;;;0.90;0.90;;;5.30;99.90;;;;;;5053702;28;20049;-80
2024/01/04 10:09:16;;;;;;;0.90;0.90;;;5.30;99.90;;;;;;5053635;28;20053;-79
2024/01/04 10:12:11;;;;;;;0.90;0.90;;;5.20;99.90;;;;;;5053523;28;20562;-77
2024/01/04 10:14:37;;;;;;;0.90;0.90;;;5.30;99.90;;;;;;5053894;28;20056;-72
2024/01/04 10:17:04;;;;;;;0.90;0.90;;;5.30;99.90;;;;;;5053571;28;20049;-73
2024/01/04 10:19:31;;;;;;;0.90;0.90;;;5.30;99.90;;;;;;5053711;28;20109;-73
2024/01/04 10:22:08;;;;;;;0.80;0.80;;;5.40;99.90;;;;;;5053508;28;20036;-77
2024/01/04 10:24:37;;;;;;;0.90;0.90;;;5.40;99.90;;;;;;5053572;28;20049;-75
2024/01/04 10:27:04;;;;;;;0.80;0.80;;;5.50;99.90;;;;;;5053537;28;20439;-72
2024/01/04 10:29:31;;;;;;;0.80;0.80;;;5.50;99.90;;;;;;5053501;28;20076;-75
2024/01/04 10:31:57;;;;;;;0.80;0.80;;;5.60;99.90;;;;;;5053550;28;20052;-71
2024/01/04 10:34:22;;;;;;;0.90;0.90;;;5.60;99.90;;;;;;5053227;28;20045;-75
2024/01/04 10:36:48;;;;;;;0.90;0.90;;;5.60;99.90;;;;;;5053696;28;20062;-75
2024/01/04 10:39:19;;;;;;;0.80;0.80;;;5.60;99.90;;;;;;5053477;28;20049;-77
2024/01/04 10:41:59;;;;;;;1.00;1.00;;;5.60;99.90;;;;;;5053249;28;20076;-75
2024/01/04 10:44:27;;;;;;;1.08;0.90;;;5.60;99.90;;;;;;5053778;28;20208;-79
2024/01/04 10:47:00;;;;;;;0.80;0.80;;;5.60;99.90;;;;;;5053527;28;20053;-75
2024/01/04 10:49:26;;;;;;;0.80;0.80;;;5.60;99.90;;;;;;5053430;28;20271;-73
2024/01/04 10:52:01;;;;;;;0.90;0.90;;;5.60;99.90;;;;;;5053208;28;20088;-78
2024/01/04 10:54:37;;;;;;;0.90;0.90;;;5.60;99.90;;;;;;5053097;28;20098;-75
2024/01/04 10:57:03;;;;;;;0.80;0.80;;;5.60;99.90;;;;;;5053383;28;20092;-73
2024/01/04 10:59:30;;;;;;;0.80;0.80;;;5.60;99.90;;;;;;5053209;28;20066;-72
2024/01/04 11:01:59;;;;;;;;;;;5.60;99.90;;;;;;5053702;28;20438;-72
2024/01/04 11:04:26;;;;;;;0.90;0.90;;;5.50;99.90;;;;;;5053315;28;19920;-73
2024/01/04 11:06:52;;;;;;;0.80;0.80;;;5.60;99.90;;;;;;5053115;28;20089;-72
2024/01/04 11:09:21;;;;;;;0.90;0.90;;;5.50;99.90;;;;;;5053031;28;20051;-73
2024/01/04 11:11:51;;;;;;;0.80;0.80;;;5.50;99.90;;;;;;5053172;28;20072;-73
2024/01/04 11:14:24;;;;;;;0.82;0.82;;;5.60;99.90;;;;;;5053249;28;20480;-75
2024/01/04 11:17:13;;;;;;;0.90;0.90;;;5.60;99.90;;;;;;5053087;28;20408;-77
2024/01/04 11:19:59;;;;;;;0.90;0.90;;;5.70;99.90;;;;;;5053083;28;20048;-77
2024/01/04 11:22:56;;;;;;;0.90;0.90;;;5.70;99.90;;;;;;5053133;28;20081;-82
2024/01/04 11:25:33;;;;;;;0.80;0.80;;;5.60;99.90;;;;;;5052887;28;20053;-78
2024/01/04 11:28:00;;;;;;;0.90;0.90;;;5.70;99.90;;;;;;5018930;28;20055;-81
2024/01/04 11:30:27;;;;;;;0.90;0.90;;;5.70;99.90;;;;;;5052963;28;20106;-75
2024/01/04 11:32:53;;;;;;;0.90;0.90;;;5.70;99.90;;;;;;5052999;28;20052;-78
2024/01/04 11:35:21;;;;;;;0.90;0.90;;;5.70;99.90;;;;;;5057111;28;20105;-77
2024/01/04 11:37:52;;;;;;;0.90;0.90;;;5.70;99.90;;;;;;5056628;28;20072;-78
2024/01/04 11:40:26;;;;;;;0.90;0.90;;;5.70;99.90;;;;;;5053261;28;20041;-76
2024/01/04 11:42:52;;;;;;;0.90;0.90;;;5.70;99.90;;;;;;5052702;28;20060;-77
2024/01/04 11:45:19;;;;;;;0.80;0.80;;;5.70;99.90;;;;;;5053923;28;20049;-79
2024/01/04 11:47:50;;;;;;;0.90;0.90;;;5.80;99.90;;;;;;5056581;28;20495;-81
2024/01/04 11:50:26;;;;;;;0.80;0.80;;;5.80;99.90;;;;;;5056299;28;20052;-83
2024/01/04 11:53:12;;;;;;;0.90;0.90;;;5.80;99.90;;;;;;5038929;28;20051;-75
2024/01/04 11:55:38;;;;;;;0.90;0.90;;;5.80;99.90;;;;;;5056667;28;20045;-73
2024/01/04 11:58:05;;;;;;;0.88;0.88;;;5.90;99.90;;;;;;5056296;28;20059;-75
2024/01/04 12:00:33;;;;;;;0.90;0.90;;;5.90;99.90;;;;;;5056160;28;20049;-74
2024/01/04 12:03:00;;;;;;;0.90;0.90;;;5.90;99.90;;;;;;5056078;28;20041;-76
2024/01/04 12:05:28;;;;;;;0.80;0.80;;;6.00;99.90;;;;;;5056085;28;20045;-75
2024/01/04 12:07:54;;;;;;;0.80;0.80;;;6.00;99.90;;;;;;5055713;28;20087;-78
2024/01/04 12:10:20;;;;;;;0.80;0.80;;;6.00;99.90;;;;;;5056250;28;20116;-75
2024/01/04 12:12:48;;;;;;;0.90;0.90;;;5.90;99.90;;;;;;5056226;28;20056;-75
2024/01/04 12:15:19;;;;;;;0.90;0.90;;;6.60;99.90;;;;;;5056099;28;20044;-79
2024/01/04 12:17:45;;;;;;;0.85;0.85;;;5.90;99.90;;;;;;5038357;28;20060;-74
2024/01/04 12:20:12;;;;;;;0.80;0.80;;;5.90;99.90;;;;;;5055325;28;20457;-75
2024/01/04 12:22:41;;;;;;;;;;;5.80;99.90;;;;;;5054695;28;20622;-74
2024/01/04 12:25:07;;;;;;;0.88;0.88;;;5.80;99.90;;;;;;5054398;28;19925;-75
2024/01/04 12:27:36;;;;;;;0.80;0.80;;;5.70;99.90;;;;;;5054135;28;20102;-75
2024/01/04 12:30:05;;;;;;;0.90;0.90;;;5.70;99.90;;;;;;5054840;28;20041;-75
2024/01/04 12:32:32;;;;;;;0.80;0.80;;;5.70;99.90;;;;;;5029187;28;20477;-73
2024/01/04 12:34:58;;;;;;;;;;;5.60;99.90;;;;;;5035387;28;20045;-74
2024/01/04 12:37:24;;;;;;;0.73;0.73;;;5.70;99.90;;;;;;5034909;28;20292;-75
2024/01/04 12:39:49;;;;;;;0.80;0.80;;;5.60;99.90;;;;;;5035712;28;20473;-76
2024/01/04 12:42:15;;;;;;;0.80;0.80;;;5.70;99.90;;;;;;5035103;28;20091;-75
2024/01/04 12:44:41;;;;;;;0.80;0.80;;;5.70;99.90;;;;;;5035470;28;20087;-75
2024/01/04 12:47:11;;;;;;;0.80;0.80;;;5.90;99.90;;;;;;5035322;28;20280;-75
2024/01/04 12:49:40;;;;;;;0.80;0.80;;;5.80;99.90;;;;;;5035464;28;20065;-75
2024/01/04 12:52:13;;;;;;;0.80;0.80;;;5.80;99.90;;;;;;5017504;28;20045;-75
2024/01/04 12:54:40;;;;;;;0.80;0.80;;;5.90;99.90;;;;;;5017806;28;20081;-76
2024/01/04 12:57:05;;;;;;;0.82;0.82;;;5.90;99.90;;;;;;5035040;28;20056;-75